createdAt,value
2022-09-06T00:02:20.515Z,2.78
2022-09-06T00:04:49.180Z,3.17
2022-09-06T00:07:17.021Z,2.72
2022-09-06T00:09:46.156Z,2.55
2022-09-06T00:12:14.183Z,2.33
2022-09-06T00:14:42.155Z,2.38
2022-09-06T00:17:10.286Z,2.63
2022-09-06T00:19:38.054Z,2.58
2022-09-06T00:22:05.965Z,2.30
2022-09-06T00:24:34.006Z,2.28
2022-09-06T00:27:03.218Z,2.05
2022-09-06T00:29:31.341Z,2.30
2022-09-06T00:31:59.375Z,2.65
2022-09-06T00:34:27.384Z,2.67
2022-09-06T00:36:55.660Z,2.45
2022-09-06T00:39:23.545Z,2.17
2022-09-06T00:41:51.794Z,2.65
2022-09-06T00:44:20.968Z,2.15
2022-09-06T00:46:51.979Z,2.17
2022-09-06T00:49:24.368Z,2.13
2022-09-06T00:51:54.559Z,2.22
2022-09-06T00:54:22.712Z,2.08
2022-09-06T00:56:51.595Z,2.30
2022-09-06T00:59:21.107Z,2.10
2022-09-06T01:01:49.188Z,2.42
2022-09-06T01:04:17.382Z,2.70
2022-09-06T01:06:58.609Z,2.40
2022-09-06T01:09:40.967Z,2.75
2022-09-06T01:12:22.497Z,2.58
2022-09-06T01:15:05.944Z,2.60
2022-09-06T01:17:45.664Z,2.90
2022-09-06T01:20:32.354Z,2.38
2022-09-06T01:23:28.622Z,2.47
2022-09-06T01:31:17.712Z,2.58
2022-09-06T01:33:52.949Z,2.65
2022-09-06T01:36:25.300Z,2.28
2022-09-06T01:38:53.384Z,2.50
2022-09-06T01:41:21.249Z,2.47
2022-09-06T01:43:52.771Z,2.80
2022-09-06T01:46:32.446Z,3.20
2022-09-06T01:49:25.130Z,2.90
2022-09-06T01:52:03.511Z,2.33
2022-09-06T01:54:45.852Z,2.63
2022-09-06T01:57:26.883Z,2.55
2022-09-06T02:00:06.896Z,2.58
2022-09-06T02:02:48.654Z,2.78
2022-09-06T02:05:23.867Z,2.72
2022-09-06T02:07:57.200Z,2.63
2022-09-06T02:10:29.508Z,3.10
2022-09-06T02:13:01.215Z,3.05
2022-09-06T02:15:33.608Z,2.78
2022-09-06T02:18:06.831Z,2.97
2022-09-06T02:20:38.872Z,2.60
2022-09-06T02:23:09.685Z,2.60
2022-09-06T02:25:40.414Z,2.92
2022-09-06T02:28:10.192Z,3.72
2022-09-06T02:30:44.088Z,2.97
2022-09-06T02:33:17.575Z,2.75
2022-09-06T02:35:47.219Z,3.55
2022-09-06T02:38:15.605Z,2.92
2022-09-06T02:40:44.545Z,3.20
2022-09-06T02:43:12.713Z,2.83
2022-09-06T02:45:42.909Z,3.05
2022-09-06T02:48:10.720Z,3.53
2022-09-06T02:50:38.516Z,3.20
2022-09-06T02:53:09.417Z,3.47
2022-09-06T02:55:38.076Z,2.92
2022-09-06T02:58:07.612Z,3.92
2022-09-06T03:00:35.728Z,3.72
2022-09-06T03:03:05.470Z,3.55
2022-09-06T03:05:33.352Z,3.42
2022-09-06T03:08:01.517Z,4.25
2022-09-06T03:10:29.297Z,4.70
2022-09-06T03:12:57.179Z,4.93
2022-09-06T03:15:25.241Z,4.82
2022-09-06T03:17:53.006Z,4.80
2022-09-06T03:20:22.160Z,4.85
2022-09-06T03:22:50.254Z,5.05
2022-09-06T03:25:18.097Z,5.50
2022-09-06T03:27:46.222Z,5.78
2022-09-06T03:30:15.031Z,5.50
2022-09-06T03:32:42.787Z,5.55
2022-09-06T03:35:11.861Z,6.10
2022-09-06T03:37:41.089Z,6.28
2022-09-06T03:40:10.389Z,6.20
2022-09-06T03:42:39.640Z,6.70
2022-09-06T03:45:08.591Z,6.25
2022-09-06T03:47:36.503Z,6.63
2022-09-06T03:50:04.836Z,6.20
2022-09-06T03:52:33.044Z,5.63
2022-09-06T03:55:03.209Z,6.57
2022-09-06T03:57:30.973Z,5.95
2022-09-06T03:59:58.727Z,5.82
2022-09-06T04:02:26.754Z,6.43
2022-09-06T04:04:55.649Z,6.05
2022-09-06T04:07:24.043Z,6.82
2022-09-06T04:09:51.807Z,7.50
2022-09-06T04:12:20.935Z,6.93
2022-09-06T04:14:49.013Z,6.55
2022-09-06T04:17:16.829Z,6.40
2022-09-06T04:19:44.894Z,7.10
2022-09-06T04:22:12.737Z,6.68
2022-09-06T04:24:40.543Z,6.30
2022-09-06T04:27:08.542Z,6.60
2022-09-06T04:29:37.715Z,6.00
2022-09-06T04:32:05.594Z,6.47
2022-09-06T04:34:34.428Z,6.65
2022-09-06T04:37:02.243Z,7.03
2022-09-06T04:39:30.096Z,6.40
2022-09-06T04:41:58.140Z,6.40
2022-09-06T04:44:25.941Z,6.05
2022-09-06T04:47:09.362Z,6.00
2022-09-06T04:49:37.520Z,6.65
2022-09-06T04:52:05.831Z,6.32
2022-09-06T04:54:33.629Z,5.95
2022-09-06T04:57:01.463Z,6.72
2022-09-06T04:59:29.635Z,6.47
2022-09-06T05:01:58.791Z,6.65
2022-09-06T05:04:26.647Z,7.05
2022-09-06T05:07:02.151Z,6.45
2022-09-06T05:09:30.757Z,6.45
2022-09-06T05:11:58.567Z,5.88
2022-09-06T05:14:26.737Z,6.05
2022-09-06T05:16:55.404Z,5.55
2022-09-06T05:19:24.886Z,5.80
2022-09-06T05:21:53.209Z,5.68
2022-09-06T05:24:21.044Z,5.50
2022-09-06T05:26:49.153Z,4.88
2022-09-06T05:29:16.971Z,5.38
2022-09-06T05:31:45.146Z,5.63
2022-09-06T05:34:13.507Z,5.32
2022-09-06T05:36:42.753Z,5.07
2022-09-06T05:39:10.765Z,5.63
2022-09-06T05:41:38.607Z,5.22
2022-09-06T05:44:06.725Z,4.82
2022-09-06T05:46:42.280Z,4.72
2022-09-06T05:49:10.734Z,4.65
2022-09-06T05:51:38.591Z,4.93
2022-09-06T05:54:08.835Z,3.78
2022-09-06T05:56:36.774Z,3.85
2022-09-06T05:59:05.666Z,3.80
2022-09-06T06:01:33.586Z,3.50
2022-09-06T06:04:03.509Z,3.95
2022-09-06T06:06:32.864Z,3.55
2022-09-06T06:09:01.659Z,3.30
2022-09-06T06:11:32.010Z,3.10
2022-09-06T06:14:00.000Z,3.53
2022-09-06T06:16:28.166Z,3.50
2022-09-06T06:18:56.111Z,3.42
2022-09-06T06:21:25.966Z,2.92
2022-09-06T06:23:55.711Z,3.20
2022-09-06T06:26:24.363Z,2.63
2022-09-06T06:28:54.026Z,2.90
2022-09-06T06:31:25.235Z,2.50
2022-09-06T06:33:53.073Z,2.50
2022-09-06T06:36:22.772Z,2.40
2022-09-06T06:38:52.581Z,3.15
2022-09-06T06:41:23.925Z,2.70
2022-09-06T06:43:54.700Z,1.80
2022-09-06T06:46:24.341Z,1.70
2022-09-06T06:48:55.329Z,2.17
2022-09-06T06:51:26.030Z,1.95
2022-09-06T06:53:54.139Z,1.98
2022-09-06T06:56:24.263Z,2.05
2022-09-06T06:58:56.555Z,2.15
2022-09-06T07:01:26.255Z,1.95
2022-09-06T07:03:54.572Z,2.08
2022-09-06T07:09:11.497Z,1.90
2022-09-06T07:11:39.683Z,2.30
2022-09-06T07:14:08.950Z,1.88
2022-09-06T07:16:36.869Z,1.77
2022-09-06T07:19:05.228Z,1.88
2022-09-06T07:24:08.695Z,2.47
2022-09-06T07:26:39.403Z,2.28
2022-09-06T07:29:09.864Z,2.13
2022-09-06T07:34:28.234Z,1.90
2022-09-06T07:36:56.905Z,2.40
2022-09-06T07:39:25.362Z,1.95
2022-09-06T07:41:53.800Z,2.28
2022-09-06T07:44:23.475Z,1.92
2022-09-06T07:46:52.678Z,1.60
2022-09-06T07:49:21.233Z,1.80
2022-09-06T07:51:49.714Z,1.70
2022-09-06T07:54:33.057Z,1.70
2022-09-06T07:57:01.282Z,1.52
2022-09-06T07:59:30.781Z,1.73
2022-09-06T08:01:59.149Z,1.33
2022-09-06T08:04:27.213Z,2.15
2022-09-06T08:09:45.843Z,1.45
2022-09-06T08:12:14.136Z,1.60
2022-09-06T08:14:43.882Z,1.95
2022-09-06T08:17:12.086Z,2.05
2022-09-06T08:19:40.248Z,1.38
2022-09-06T08:22:08.722Z,1.98
2022-09-06T08:24:37.027Z,1.88
2022-09-06T08:27:07.875Z,1.83
2022-09-06T08:29:36.117Z,2.40
2022-09-06T08:32:05.820Z,2.13
2022-09-06T08:34:34.034Z,2.13
2022-09-06T08:37:02.162Z,2.30
2022-09-06T08:39:30.172Z,1.90
2022-09-06T08:42:03.812Z,1.80
2022-09-06T08:47:27.084Z,2.35
2022-09-06T08:50:02.312Z,1.92
2022-09-06T08:53:06.577Z,1.63
2022-09-06T08:55:41.326Z,1.67
2022-09-06T08:58:34.973Z,1.77
2022-09-06T09:01:05.910Z,2.00
2022-09-06T09:03:38.111Z,2.03
2022-09-06T09:06:10.131Z,2.13
2022-09-06T09:08:48.289Z,2.42
2022-09-06T09:11:19.818Z,2.15
2022-09-06T09:13:55.862Z,2.17
2022-09-06T09:16:25.159Z,2.00
2022-09-06T09:18:58.292Z,2.50
2022-09-06T09:21:32.351Z,2.28
2022-09-06T09:24:04.520Z,2.15
2022-09-06T09:26:37.565Z,2.17
2022-09-06T09:29:08.083Z,2.95
2022-09-06T09:31:38.460Z,2.08
2022-09-06T09:34:13.191Z,2.78
2022-09-06T09:39:37.224Z,2.60
2022-09-06T09:42:05.933Z,3.30
2022-09-06T09:44:34.713Z,3.13
2022-09-06T09:47:23.276Z,3.00
2022-09-06T09:49:52.888Z,3.80
2022-09-06T09:52:27.210Z,3.30
2022-09-06T09:54:58.276Z,3.17
2022-09-06T09:57:26.365Z,3.78
2022-09-06T09:59:57.504Z,4.25
2022-09-06T10:02:28.523Z,3.35
2022-09-06T10:05:03.845Z,3.75
2022-09-06T10:07:33.778Z,3.33
2022-09-06T10:10:05.524Z,2.90
2022-09-06T10:12:35.381Z,2.63
2022-09-06T10:15:06.943Z,2.63
2022-09-06T10:17:37.267Z,2.92
2022-09-06T10:20:10.147Z,2.70
2022-09-06T10:22:52.725Z,2.45
2022-09-06T10:25:49.117Z,2.33
2022-09-06T10:28:34.603Z,2.42
2022-09-06T10:31:17.134Z,1.65
2022-09-06T10:33:58.940Z,2.10
2022-09-06T10:36:34.103Z,2.05
2022-09-06T10:42:02.306Z,2.00
2022-09-06T10:44:46.842Z,1.73
2022-09-06T10:47:16.524Z,1.63
2022-09-06T10:49:47.417Z,1.58
2022-09-06T10:52:20.974Z,1.95
2022-09-06T10:54:49.463Z,1.75
2022-09-06T11:00:13.565Z,1.95
2022-09-06T11:02:47.259Z,1.77
2022-09-06T11:11:09.080Z,1.60
2022-09-06T11:13:36.864Z,1.85
2022-09-06T11:16:09.696Z,1.75
2022-09-06T11:18:44.846Z,1.80
2022-09-06T11:24:12.211Z,1.52
2022-09-06T11:26:45.571Z,1.52
2022-09-06T11:29:20.959Z,1.65
2022-09-06T11:34:54.326Z,1.65
2022-09-06T11:37:27.341Z,1.10
2022-09-06T11:43:12.161Z,1.38
2022-09-06T11:45:42.607Z,1.33
2022-09-06T11:48:35.152Z,1.67
2022-09-06T11:51:10.680Z,2.33
2022-09-06T11:54:10.213Z,1.75
2022-09-06T11:56:44.338Z,1.52
2022-09-06T11:59:28.729Z,1.67
2022-09-06T12:02:03.880Z,1.30
2022-09-06T12:07:18.133Z,0.95
2022-09-06T12:09:46.441Z,1.30
2022-09-06T12:12:42.438Z,1.27
2022-09-06T12:15:26.123Z,1.70
2022-09-06T12:17:54.176Z,1.52
2022-09-06T12:21:02.235Z,1.40
2022-09-06T12:23:44.361Z,1.50
2022-09-06T12:26:13.379Z,1.30
2022-09-06T12:28:49.761Z,1.17
2022-09-06T12:31:26.437Z,1.13
2022-09-06T12:33:56.014Z,1.10
2022-09-06T12:36:29.752Z,1.13
2022-09-06T12:39:00.557Z,1.10
2022-09-06T12:41:30.786Z,1.05
2022-09-06T12:44:03.189Z,1.00
2022-09-06T12:46:32.372Z,1.23
2022-09-06T12:49:01.883Z,1.15
2022-09-06T12:51:29.754Z,1.10
2022-09-06T12:54:00.130Z,1.08
2022-09-06T12:56:30.220Z,1.00
2022-09-06T12:59:20.122Z,1.10
2022-09-06T13:01:54.125Z,1.35
2022-09-06T13:04:28.865Z,1.20
2022-09-06T13:06:58.485Z,1.40
2022-09-06T13:09:29.983Z,1.20
2022-09-06T13:12:05.505Z,1.20
2022-09-06T13:14:36.277Z,1.38
2022-09-06T13:17:04.068Z,1.13
2022-09-06T13:19:34.989Z,1.35
2022-09-06T13:22:05.437Z,1.02
2022-09-06T13:24:47.143Z,1.00
2022-09-06T13:27:25.998Z,1.23
2022-09-06T13:30:00.204Z,1.40
2022-09-06T13:32:28.836Z,1.20
2022-09-06T13:35:00.117Z,1.10
2022-09-06T13:37:31.375Z,1.40
2022-09-06T13:40:00.289Z,1.13
2022-09-06T13:42:30.620Z,1.30
2022-09-06T13:45:02.327Z,1.10
2022-09-06T13:47:31.207Z,0.98
2022-09-06T13:49:59.105Z,1.40
2022-09-06T13:52:27.226Z,1.10
2022-09-06T13:54:55.184Z,1.23
2022-09-06T13:57:24.669Z,1.33
2022-09-06T13:59:52.761Z,1.55
2022-09-06T14:02:22.054Z,1.33
2022-09-06T14:04:50.185Z,1.00
2022-09-06T14:07:18.352Z,1.00
2022-09-06T14:09:47.573Z,1.30
2022-09-06T14:12:15.477Z,1.00
2022-09-06T14:14:44.611Z,1.15
2022-09-06T14:17:12.636Z,1.13
2022-09-06T14:19:42.794Z,1.02
2022-09-06T14:22:10.906Z,1.20
2022-09-06T14:24:39.258Z,0.98
2022-09-06T14:27:08.679Z,1.60
2022-09-06T14:29:37.141Z,1.30
2022-09-06T14:32:05.232Z,1.25
2022-09-06T14:34:33.092Z,1.00
2022-09-06T14:37:02.441Z,1.13
2022-09-06T14:39:30.708Z,1.17
2022-09-06T14:41:58.690Z,1.23
2022-09-06T14:44:27.135Z,0.98
2022-09-06T14:46:55.447Z,1.08
2022-09-06T14:49:23.540Z,1.13
2022-09-06T14:51:53.642Z,0.98
2022-09-06T14:54:27.277Z,1.48
2022-09-06T14:56:57.230Z,0.90
2022-09-06T14:59:25.220Z,1.00
2022-09-06T15:01:53.200Z,1.25
2022-09-06T15:04:21.833Z,1.15
2022-09-06T15:06:49.835Z,1.50
2022-09-06T15:09:19.425Z,1.15
2022-09-06T15:11:50.689Z,1.15
2022-09-06T15:14:21.109Z,1.52
2022-09-06T15:16:54.919Z,1.58
2022-09-06T15:19:25.063Z,1.30
2022-09-06T15:21:53.107Z,1.73
2022-09-06T15:24:21.918Z,1.33
2022-09-06T15:26:51.532Z,1.25
2022-09-06T15:29:20.446Z,1.27
2022-09-06T15:31:50.721Z,1.65
2022-09-06T15:34:19.912Z,1.52
2022-09-06T15:36:48.044Z,1.15
2022-09-06T15:39:16.508Z,1.10
2022-09-06T15:41:44.551Z,1.10
2022-09-06T15:44:15.906Z,1.00
2022-09-06T15:46:47.477Z,1.65
2022-09-06T15:49:17.394Z,1.15
2022-09-06T15:51:46.183Z,1.08
2022-09-06T15:54:16.032Z,1.10
2022-09-06T15:56:43.258Z,1.23
2022-09-06T15:59:11.858Z,1.17
2022-09-06T16:01:41.499Z,1.30
2022-09-06T16:04:09.310Z,1.13
2022-09-06T16:06:42.209Z,0.98
2022-09-06T16:09:11.423Z,1.10
2022-09-06T16:11:39.213Z,1.58
2022-09-06T16:14:08.495Z,1.23
2022-09-06T16:16:36.729Z,1.42
2022-09-06T16:19:05.943Z,1.30
2022-09-06T16:21:36.126Z,1.63
2022-09-06T16:24:05.730Z,1.63
2022-09-06T16:26:35.167Z,1.50
2022-09-06T16:29:04.650Z,1.60
2022-09-06T16:31:39.112Z,1.23
2022-09-06T16:34:09.160Z,1.48
2022-09-06T16:36:37.229Z,1.30
2022-09-06T16:39:05.773Z,1.45
2022-09-06T16:41:39.003Z,1.20
2022-09-06T16:44:06.943Z,1.30
2022-09-06T16:46:34.803Z,1.73
2022-09-06T16:49:04.477Z,1.40
2022-09-06T16:51:33.807Z,1.50
2022-09-06T16:54:02.692Z,1.33
2022-09-06T16:56:34.737Z,0.90
2022-09-06T16:59:05.332Z,1.45
2022-09-06T17:01:34.350Z,1.45
2022-09-06T17:04:03.110Z,1.38
2022-09-06T17:06:32.544Z,1.60
2022-09-06T17:09:01.740Z,1.40
2022-09-06T17:11:30.582Z,1.58
2022-09-06T17:13:58.809Z,9.07
2022-09-06T17:16:46.465Z,3.92
2022-09-06T17:19:14.936Z,1.60
2022-09-06T17:21:43.630Z,1.63
2022-09-06T17:24:12.825Z,1.55
2022-09-06T17:26:41.367Z,1.38
2022-09-06T17:29:09.580Z,1.10
2022-09-06T17:31:38.367Z,1.42
2022-09-06T17:34:07.698Z,1.65
2022-09-06T17:36:36.456Z,1.35
2022-09-06T17:39:06.310Z,2.15
2022-09-06T17:41:37.823Z,1.50
2022-09-06T17:44:07.011Z,1.70
2022-09-06T17:46:36.309Z,1.20
2022-09-06T17:49:05.931Z,1.27
2022-09-06T17:51:34.513Z,1.50
2022-09-06T17:54:02.392Z,1.40
2022-09-06T17:56:30.601Z,1.70
2022-09-06T17:59:01.804Z,1.63
2022-09-06T18:01:32.067Z,1.92
2022-09-06T18:04:00.993Z,1.48
2022-09-06T18:06:30.993Z,1.63
2022-09-06T18:09:03.408Z,1.38
2022-09-06T18:11:33.387Z,1.20
2022-09-06T18:14:05.129Z,1.25
2022-09-06T18:16:34.999Z,1.60
2022-09-06T18:19:04.555Z,1.00
2022-09-06T18:21:36.213Z,1.38
2022-09-06T18:24:05.018Z,1.45
2022-09-06T18:26:32.904Z,1.60
2022-09-06T18:29:02.339Z,1.33
2022-09-06T18:31:30.269Z,1.38
2022-09-06T18:33:58.925Z,1.52
2022-09-06T18:36:31.781Z,1.50
2022-09-06T18:39:02.804Z,1.77
2022-09-06T18:41:47.956Z,1.40
2022-09-06T18:44:17.896Z,1.23
2022-09-06T18:46:45.784Z,1.65
2022-09-06T18:49:15.021Z,1.83
2022-09-06T18:51:44.607Z,1.65
2022-09-06T18:54:12.641Z,1.73
2022-09-06T18:56:40.536Z,1.70
2022-09-06T18:59:08.583Z,1.42
2022-09-06T19:01:37.996Z,1.80
2022-09-06T19:04:07.120Z,1.95
2022-09-06T19:06:36.325Z,1.67
2022-09-06T19:09:07.044Z,1.90
2022-09-06T19:11:35.314Z,1.88
2022-09-06T19:14:03.585Z,1.50
2022-09-06T19:16:32.619Z,1.80
2022-09-06T19:19:04.969Z,1.42
2022-09-06T19:21:36.729Z,1.92
2022-09-06T19:24:10.198Z,1.80
2022-09-06T19:26:40.265Z,1.60
2022-09-06T19:29:12.149Z,1.38
2022-09-06T19:31:40.678Z,1.67
2022-09-06T19:34:09.905Z,2.00
2022-09-06T19:36:37.752Z,1.52
2022-09-06T19:39:07.965Z,1.40
2022-09-06T19:41:39.014Z,1.50
2022-09-06T19:44:08.625Z,2.65
2022-09-06T19:46:37.179Z,1.80
2022-09-06T19:49:10.252Z,2.03
2022-09-06T19:51:39.591Z,1.80
2022-09-06T19:54:07.574Z,1.45
2022-09-06T19:56:37.600Z,1.20
2022-09-06T19:59:06.920Z,1.67
2022-09-06T20:01:36.995Z,1.50
2022-09-06T20:04:07.275Z,1.67
2022-09-06T20:06:37.220Z,1.55
2022-09-06T20:09:07.479Z,2.05
2022-09-06T20:11:37.793Z,2.15
2022-09-06T20:14:05.860Z,2.05
2022-09-06T20:16:36.143Z,2.15
2022-09-06T20:19:07.302Z,2.30
2022-09-06T20:21:36.876Z,2.03
2022-09-06T20:24:04.807Z,2.03
2022-09-06T20:26:32.635Z,1.92
2022-09-06T20:29:02.409Z,1.30
2022-09-06T20:31:31.853Z,1.95
2022-09-06T20:34:01.394Z,2.03
2022-09-06T20:36:30.088Z,1.92
2022-09-06T20:38:59.305Z,1.48
2022-09-06T20:41:28.779Z,1.75
2022-09-06T20:43:57.919Z,2.20
2022-09-06T20:46:27.374Z,1.83
2022-09-06T20:48:57.705Z,1.80
2022-09-06T20:51:25.966Z,1.88
2022-09-06T20:53:55.994Z,1.63
2022-09-06T20:56:26.856Z,2.17
2022-09-06T20:58:56.935Z,1.88
2022-09-06T21:01:26.475Z,1.75
2022-09-06T21:03:56.403Z,1.52
2022-09-06T21:06:26.088Z,2.08
2022-09-06T21:08:53.939Z,4.15
2022-09-06T21:11:22.095Z,2.97
2022-09-06T21:13:52.767Z,3.13
2022-09-06T21:16:24.679Z,2.67
2022-09-06T21:18:53.521Z,3.50
2022-09-06T21:21:22.204Z,2.70
2022-09-06T21:23:50.590Z,2.15
2022-09-06T21:26:19.118Z,2.17
2022-09-06T21:28:48.071Z,1.80
2022-09-06T21:31:19.285Z,2.40
2022-09-06T21:33:48.308Z,2.30
2022-09-06T21:36:18.850Z,2.47
2022-09-06T21:38:48.324Z,2.42
2022-09-06T21:41:18.412Z,2.40
2022-09-06T21:43:46.925Z,2.63
2022-09-06T21:46:17.913Z,3.03
2022-09-06T21:48:48.361Z,2.67
2022-09-06T21:51:18.562Z,2.40
2022-09-06T21:53:48.302Z,2.50
2022-09-06T21:56:18.978Z,2.47
2022-09-06T21:58:46.959Z,2.60
2022-09-06T22:01:15.094Z,2.47
2022-09-06T22:03:44.798Z,2.35
2022-09-06T22:06:14.969Z,2.40
2022-09-06T22:08:44.224Z,2.38
2022-09-06T22:11:14.187Z,2.53
2022-09-06T22:13:42.272Z,2.40
2022-09-06T22:16:11.784Z,2.70
2022-09-06T22:18:39.840Z,2.72
2022-09-06T22:21:10.845Z,1.98
2022-09-06T22:23:39.921Z,2.60
2022-09-06T22:26:09.737Z,2.40
2022-09-06T22:28:39.473Z,2.60
2022-09-06T22:31:08.113Z,2.55
2022-09-06T22:33:37.027Z,2.80
2022-09-06T22:36:06.687Z,3.05
2022-09-06T22:38:37.670Z,2.63
2022-09-06T22:41:06.618Z,2.63
2022-09-06T22:43:34.542Z,2.40
2022-09-06T22:46:07.034Z,2.47
2022-09-06T22:48:35.789Z,2.60
2022-09-06T22:51:06.082Z,2.63
2022-09-06T22:53:35.573Z,2.35
2022-09-06T22:56:04.062Z,2.45
2022-09-06T22:58:32.146Z,2.33
2022-09-06T23:01:07.785Z,3.20
2022-09-06T23:03:36.405Z,2.70
2022-09-06T23:06:04.692Z,2.38
2022-09-06T23:08:32.796Z,2.72
2022-09-06T23:11:05.846Z,2.63
2022-09-06T23:13:33.805Z,2.55
2022-09-06T23:16:04.669Z,2.80
2022-09-06T23:18:32.783Z,2.50
2022-09-06T23:21:05.212Z,2.78
2022-09-06T23:23:33.385Z,2.88
2022-09-06T23:26:07.094Z,3.00
2022-09-06T23:28:35.739Z,2.60
2022-09-06T23:31:04.864Z,3.03
2022-09-06T23:33:35.050Z,2.75
2022-09-06T23:36:03.698Z,2.97
2022-09-06T23:38:33.093Z,2.78
2022-09-06T23:41:01.170Z,2.72
2022-09-06T23:43:30.998Z,2.45
2022-09-06T23:45:59.410Z,3.40
2022-09-06T23:48:27.519Z,3.47
2022-09-06T23:50:55.339Z,2.65
2022-09-06T23:53:23.388Z,2.50
2022-09-06T23:55:51.621Z,2.83
2022-09-06T23:58:19.517Z,2.90
